Time;durP1;ratioP1;P1;durP2;ratioP2;P2;SDS_P1;SDS_P2;PMS_P1;PMS_P2;Temp;Humidity;BMP_temperature;BMP_pressure;BME280_temperature;BME280_humidity;BME280_pressure;Samples;Min_cycle;Max_cycle;Signal;HPM_P1;HPM_P2
2022/10/02 00:02:06;;;;;;;3.13;0.25;;;23.20;86.40;;;;;;5064074;28;20047;-74
2022/10/02 00:04:58;;;;;;;1.85;0.47;;;23.00;87.60;;;;;;5088446;28;20025;-76
2022/10/02 00:08:03;;;;;;;3.40;0.47;;;23.10;86.20;;;;;;5093347;28;20024;-74
2022/10/02 00:10:47;;;;;;;1.65;0.10;;;23.50;86.60;;;;;;5040115;28;20533;-75
2022/10/02 00:13:28;;;;;;;0.32;0.10;;;23.80;90.00;;;;;;5061498;28;20078;-76
2022/10/02 00:15:57;;;;;;;0.70;0.10;;;24.40;88.80;;;;;;5066772;28;20508;-77
2022/10/02 00:18:31;;;;;;;1.65;0.15;;;25.00;88.10;;;;;;5066298;28;20031;-75
2022/10/02 00:21:30;;;;;;;0.65;0.10;;;25.40;85.40;;;;;;5059649;28;20064;-74
2022/10/02 00:24:04;;;;;;;2.55;0.52;;;25.90;84.40;;;;;;5060372;28;20119;-78
2022/10/02 00:27:02;;;;;;;0.95;0.20;;;26.50;86.20;;;;;;5078697;28;20035;-77
2022/10/02 00:29:47;;;;;;;1.23;0.20;;;26.80;82.50;;;;;;5059122;28;20070;-77
2022/10/02 00:32:48;;;;;;;3.13;0.15;;;25.60;83.20;;;;;;5057623;28;20037;-76
2022/10/02 00:35:19;;;;;;;0.40;0.10;;;24.30;84.20;;;;;;5061915;28;20047;-76
2022/10/02 00:37:52;;;;;;;2.10;0.28;;;23.70;87.00;;;;;;5069061;28;20049;-77
2022/10/02 00:40:38;;;;;;;2.30;0.20;;;23.40;85.80;;;;;;5065803;28;20392;-77
2022/10/02 00:43:43;;;;;;;1.48;0.20;;;23.10;87.00;;;;;;5067872;28;20090;-76
2022/10/02 00:46:28;;;;;;;3.08;0.43;;;22.40;88.80;;;;;;5023740;28;20084;-77
2022/10/02 00:49:14;;;;;;;1.00;0.20;;;21.90;88.80;;;;;;5013196;28;20380;-78
2022/10/02 00:51:44;;;;;;;2.50;0.20;;;22.20;90.30;;;;;;5055380;28;20397;-79
2022/10/02 00:54:27;;;;;;;2.38;0.30;;;23.20;90.20;;;;;;5070717;28;20039;-78
2022/10/02 00:57:20;;;;;;;1.08;0.20;;;23.20;89.50;;;;;;5070119;28;20032;-80
2022/10/02 00:59:58;;;;;;;0.50;0.20;;;22.90;88.00;;;;;;5068187;28;20075;-77
2022/10/02 01:02:52;;;;;;;1.38;0.10;;;22.80;88.60;;;;;;5065403;28;20056;-78
2022/10/02 01:05:20;;;;;;;0.88;0.20;;;23.00;88.10;;;;;;5065551;28;20052;-78
2022/10/02 01:07:50;;;;;;;0.70;0.10;;;22.80;86.30;;;;;;5068939;28;20036;-78
2022/10/02 01:10:21;;;;;;;0.77;0.20;;;22.30;88.20;;;;;;5070909;28;20036;-78
2022/10/02 01:12:49;;;;;;;0.73;0.15;;;22.40;89.10;;;;;;5067510;28;20021;-79
2022/10/02 01:15:21;;;;;;;3.05;0.40;;;23.10;86.40;;;;;;5066098;28;20502;-78
2022/10/02 01:17:51;;;;;;;0.75;0.17;;;22.80;85.00;;;;;;5065593;28;20029;-78
2022/10/02 01:20:41;;;;;;;1.20;0.10;;;22.50;86.90;;;;;;5061069;28;20083;-76
2022/10/02 01:23:29;;;;;;;1.20;0.10;;;22.10;87.40;;;;;;5053783;28;20024;-76
2022/10/02 01:25:58;;;;;;;0.35;0.10;;;22.80;90.10;;;;;;5062138;28;20024;-77
2022/10/02 01:28:26;;;;;;;0.30;0.10;;;23.80;88.00;;;;;;5065753;28;20147;-80
2022/10/02 01:31:00;;;;;;;1.52;0.20;;;24.50;88.10;;;;;;5055105;28;20173;-80
2022/10/02 01:33:27;;;;;;;0.60;0.15;;;24.90;84.90;;;;;;5062521;28;20527;-76
2022/10/02 01:35:55;;;;;;;1.08;0.10;;;24.40;84.20;;;;;;5069958;28;20036;-78
2022/10/02 01:38:23;;;;;;;0.75;0.10;;;23.70;83.50;;;;;;5069289;28;20077;-75
2022/10/02 01:40:51;;;;;;;0.50;0.22;;;23.30;84.80;;;;;;5068333;28;20494;-76
2022/10/02 01:43:23;;;;;;;2.40;0.20;;;22.80;82.90;;;;;;5064810;28;20024;-76
2022/10/02 01:46:10;;;;;;;0.30;0.10;;;22.60;84.50;;;;;;5062223;28;20086;-77
2022/10/02 01:48:43;;;;;;;0.30;0.10;;;22.70;83.60;;;;;;5068706;28;20082;-74
2022/10/02 01:51:19;;;;;;;1.35;0.43;;;23.40;85.70;;;;;;5064032;28;20025;-77
2022/10/02 01:54:15;;;;;;;1.38;0.10;;;24.30;84.90;;;;;;5062589;28;20029;-79
2022/10/02 01:57:00;;;;;;;0.77;0.10;;;25.00;82.60;;;;;;5049281;28;20044;-77
2022/10/02 01:59:46;;;;;;;1.35;0.30;;;25.10;84.00;;;;;;5063571;28;20029;-76
2022/10/02 02:02:25;;;;;;;0.20;0.10;;;25.20;86.00;;;;;;5051078;28;20044;-77
2022/10/02 02:05:15;;;;;;;2.28;0.13;;;24.70;83.20;;;;;;5059432;28;20031;-76
2022/10/02 02:08:03;;;;;;;0.68;0.10;;;24.20;82.80;;;;;;5059339;28;20041;-78
2022/10/02 02:10:43;;;;;;;0.47;0.08;;;24.30;83.70;;;;;;5068156;28;20093;-77
2022/10/02 02:13:25;;;;;;;0.73;0.30;;;25.00;86.30;;;;;;5066725;28;20047;-77
2022/10/02 02:15:58;;;;;;;0.20;0.00;;;25.70;82.70;;;;;;5080459;28;20053;-77
2022/10/02 02:18:59;;;;;;;1.30;0.40;;;26.20;84.30;;;;;;5068783;28;20036;-78
2022/10/02 02:21:41;;;;;;;1.42;0.20;;;26.40;81.10;;;;;;5055887;28;20052;-78
2022/10/02 02:24:20;;;;;;;0.88;0.10;;;26.60;83.60;;;;;;5066898;28;20517;-78
2022/10/02 02:26:49;;;;;;;0.57;0.00;;;26.60;82.20;;;;;;5057084;28;20033;-78
2022/10/02 02:29:21;;;;;;;1.63;0.20;;;26.60;80.50;;;;;;5060507;28;20019;-78
2022/10/02 02:31:56;;;;;;;0.20;0.10;;;26.10;80.10;;;;;;5063699;28;20024;-78
2022/10/02 02:34:27;;;;;;;;;;;26.00;78.60;;;;;;5072900;28;20069;-77
2022/10/02 02:37:01;;;;;;;0.57;0.10;;;26.20;79.20;;;;;;5062936;28;19912;-76
2022/10/02 02:39:44;;;;;;;0.93;0.10;;;26.40;78.60;;;;;;5072247;28;20027;-78
2022/10/02 02:42:15;;;;;;;0.43;0.10;;;26.50;81.20;;;;;;5073992;28;20399;-80
2022/10/02 02:44:54;;;;;;;1.80;0.10;;;26.70;81.20;;;;;;5065708;28;20051;-78
2022/10/02 02:47:41;;;;;;;0.30;0.10;;;26.70;79.70;;;;;;5068775;28;20025;-76
2022/10/02 02:50:44;;;;;;;0.30;0.10;;;26.20;81.10;;;;;;5073404;28;20441;-76
2022/10/02 02:53:29;;;;;;;0.50;0.10;;;25.00;80.20;;;;;;5043669;28;20112;-76
2022/10/02 02:56:01;;;;;;;2.03;0.10;;;23.80;80.00;;;;;;5078111;28;20028;-76
2022/10/02 02:59:03;;;;;;;2.45;0.10;;;23.90;80.50;;;;;;5066474;28;20032;-77
2022/10/02 03:01:30;;;;;;;0.28;0.10;;;24.30;79.20;;;;;;5055544;28;20052;-76
2022/10/02 03:03:58;;;;;;;0.88;0.28;;;24.60;82.80;;;;;;5070690;28;20561;-76
2022/10/02 03:06:32;;;;;;;0.20;0.10;;;25.20;81.00;;;;;;5061919;28;20512;-76
2022/10/02 03:09:01;;;;;;;0.38;0.13;;;25.40;79.90;;;;;;5059107;28;20033;-75
2022/10/02 03:11:46;;;;;;;1.50;0.20;;;25.50;79.50;;;;;;5056676;28;20384;-75
2022/10/02 03:14:23;;;;;;;0.85;0.20;;;25.70;79.10;;;;;;5062747;28;20420;-75
2022/10/02 03:16:56;;;;;;;0.60;0.30;;;25.60;77.80;;;;;;5072543;28;20017;-77
2022/10/02 03:20:05;;;;;;;0.73;0.13;;;25.70;77.80;;;;;;5063352;28;20509;-76
2022/10/02 03:22:51;;;;;;;0.55;0.20;;;25.70;77.80;;;;;;5067093;28;20036;-76
2022/10/02 03:25:25;;;;;;;2.83;0.15;;;25.90;80.50;;;;;;5061344;28;20028;-76
2022/10/02 03:28:16;;;;;;;0.90;0.10;;;26.20;80.30;;;;;;5068544;28;20051;-76
2022/10/02 03:30:46;;;;;;;1.08;0.10;;;26.40;79.80;;;;;;5059358;28;20043;-76
2022/10/02 03:33:16;;;;;;;0.35;0.25;;;26.40;82.00;;;;;;5067833;28;20131;-77
2022/10/02 03:35:44;;;;;;;0.25;0.10;;;26.40;77.40;;;;;;5078216;28;20078;-73
2022/10/02 03:38:14;;;;;;;0.43;0.15;;;26.50;77.10;;;;;;5077903;28;20024;-74
2022/10/02 03:40:41;;;;;;;0.28;0.00;;;26.30;75.90;;;;;;5054735;28;20040;-74
2022/10/02 03:43:22;;;;;;;1.33;0.10;;;26.20;76.20;;;;;;5060080;28;20024;-74
2022/10/02 03:45:50;;;;;;;0.95;0.28;;;26.10;75.40;;;;;;5070071;28;20024;-76
2022/10/02 03:48:17;;;;;;;0.52;0.17;;;26.20;78.30;;;;;;5068070;28;20043;-74
2022/10/02 03:50:45;;;;;;;1.40;0.40;;;25.90;81.60;;;;;;5069607;28;20024;-74
2022/10/02 03:53:19;;;;;;;0.85;0.30;;;25.60;83.60;;;;;;5076869;28;20021;-78
2022/10/02 03:55:57;;;;;;;0.73;0.20;;;24.60;85.20;;;;;;5057158;28;20041;-79
2022/10/02 03:58:25;;;;;;;3.85;0.30;;;23.60;88.30;;;;;;5051824;28;20035;-73
2022/10/02 04:00:53;;;;;;;0.80;0.50;;;23.10;90.00;;;;;;5067033;28;20094;-74
2022/10/02 04:03:26;;;;;;;1.08;0.40;;;22.50;90.40;;;;;;5054504;28;20036;-76
2022/10/02 04:06:05;;;;;;;0.40;0.20;;;22.20;90.70;;;;;;5080739;28;20025;-76
2022/10/02 04:09:04;;;;;;;0.90;0.50;;;21.60;91.30;;;;;;5067494;28;20043;-74
2022/10/02 04:11:42;;;;;;;1.48;0.40;;;21.20;92.00;;;;;;5058450;28;20063;-77
2022/10/02 04:14:29;;;;;;;1.38;0.22;;;21.50;92.20;;;;;;5071060;28;20078;-78
2022/10/02 04:17:01;;;;;;;1.35;0.30;;;21.80;91.90;;;;;;5061000;28;20082;-79
2022/10/02 04:19:42;;;;;;;2.08;0.57;;;22.00;91.10;;;;;;5059320;28;20028;-77
2022/10/02 04:22:41;;;;;;;1.48;0.45;;;22.30;91.20;;;;;;5059088;28;20033;-75
2022/10/02 04:25:27;;;;;;;1.85;0.30;;;22.40;90.40;;;;;;5047966;28;20041;-75
2022/10/02 04:28:10;;;;;;;0.90;0.30;;;22.40;90.50;;;;;;5058943;28;20797;-75
2022/10/02 04:30:37;;;;;;;0.43;0.30;;;22.40;90.10;;;;;;5057679;28;20029;-78
2022/10/02 04:33:17;;;;;;;1.33;0.30;;;22.10;90.40;;;;;;5077655;28;20167;-76
2022/10/02 04:36:02;;;;;;;2.53;0.38;;;22.10;90.60;;;;;;5051855;28;20104;-79
2022/10/02 04:38:46;;;;;;;4.43;0.32;;;21.90;90.40;;;;;;5057076;28;20028;-79
2022/10/02 04:41:31;;;;;;;2.58;0.40;;;21.60;90.70;;;;;;5062980;28;20127;-78
2022/10/02 04:44:22;;;;;;;2.45;0.35;;;21.60;90.80;;;;;;5060739;28;20112;-74
2022/10/02 04:46:58;;;;;;;1.30;0.60;;;21.90;91.30;;;;;;5070123;28;20028;-77
2022/10/02 04:49:49;;;;;;;0.20;0.20;;;22.00;90.40;;;;;;5057848;28;20407;-76
2022/10/02 04:52:35;;;;;;;0.85;0.20;;;22.00;90.10;;;;;;5065951;28;20025;-72
2022/10/02 04:55:21;;;;;;;1.42;0.30;;;21.80;90.50;;;;;;5066862;28;20041;-78
2022/10/02 04:57:51;;;;;;;0.60;0.30;;;21.60;90.50;;;;;;5057997;28;20050;-76
2022/10/02 05:00:24;;;;;;;1.08;0.35;;;21.40;90.90;;;;;;5067419;28;20289;-76
2022/10/02 05:03:29;;;;;;;1.25;0.30;;;21.50;91.40;;;;;;5067543;28;20058;-77
2022/10/02 05:06:24;;;;;;;1.48;0.17;;;21.60;90.80;;;;;;5058398;28;20035;-76
2022/10/02 05:09:13;;;;;;;0.63;0.10;;;21.60;90.60;;;;;;5069164;28;20055;-78
2022/10/02 05:11:52;;;;;;;0.35;0.20;;;21.70;91.10;;;;;;5074916;28;20029;-76
2022/10/02 05:14:22;;;;;;;2.78;0.10;;;21.50;90.80;;;;;;5056504;28;20056;-76
2022/10/02 05:16:58;;;;;;;0.75;0.20;;;21.40;91.30;;;;;;5056945;28;20020;-74
2022/10/02 05:19:52;;;;;;;0.63;0.20;;;21.30;91.30;;;;;;5069451;28;20086;-79
2022/10/02 05:22:43;;;;;;;1.35;0.20;;;21.20;91.50;;;;;;5066892;28;20206;-77
2022/10/02 05:25:35;;;;;;;1.00;0.20;;;21.00;92.00;;;;;;5055046;28;20025;-77
2022/10/02 05:28:39;;;;;;;0.65;0.20;;;21.00;92.20;;;;;;5065491;28;20111;-78
2022/10/02 05:31:39;;;;;;;1.80;0.32;;;21.00;91.70;;;;;;5065751;28;20117;-78
2022/10/02 05:34:12;;;;;;;2.15;0.20;;;21.00;91.90;;;;;;5059112;28;20411;-77
2022/10/02 05:36:46;;;;;;;1.42;0.17;;;20.90;92.60;;;;;;5049735;28;20041;-78
2022/10/02 05:39:36;;;;;;;2.00;0.63;;;20.90;92.50;;;;;;5062940;28;20021;-75
2022/10/02 05:42:33;;;;;;;1.15;0.30;;;20.90;92.70;;;;;;5059596;28;20029;-77
2022/10/02 05:45:39;;;;;;;4.25;0.25;;;20.90;92.60;;;;;;5033584;28;20064;-75
2022/10/02 05:48:47;;;;;;;0.73;0.20;;;20.80;92.60;;;;;;5051740;28;20016;-77
2022/10/02 05:51:52;;;;;;;0.68;0.10;;;20.80;92.40;;;;;;5049910;28;20037;-76
2022/10/02 05:54:51;;;;;;;1.52;0.20;;;20.40;92.30;;;;;;5059411;28;20025;-76
2022/10/02 05:57:46;;;;;;;3.05;1.05;;;20.20;92.90;;;;;;5069670;28;20025;-77
2022/10/02 06:00:24;;;;;;;0.20;0.20;;;20.00;92.90;;;;;;5049960;28;20029;-77
2022/10/02 06:03:09;;;;;;;1.25;0.30;;;19.90;93.10;;;;;;5056042;28;20040;-76
2022/10/02 06:06:01;;;;;;;1.10;0.32;;;19.80;93.20;;;;;;5081084;28;20024;-77
2022/10/02 06:08:46;;;;;;;1.48;0.20;;;19.50;93.40;;;;;;5058379;28;20075;-78
2022/10/02 06:11:31;;;;;;;2.15;0.52;;;19.50;93.60;;;;;;5065213;28;20024;-77
2022/10/02 06:14:20;;;;;;;0.93;0.20;;;19.50;93.70;;;;;;5055852;28;20048;-76
2022/10/02 06:17:09;;;;;;;1.88;0.28;;;19.40;93.70;;;;;;5058735;28;20417;-76
2022/10/02 06:20:18;;;;;;;0.17;0.17;;;19.30;93.90;;;;;;5055177;28;20124;-75
2022/10/02 06:23:01;;;;;;;0.80;0.30;;;19.00;94.20;;;;;;5039286;28;20045;-77
2022/10/02 06:25:40;;;;;;;0.70;0.22;;;18.80;94.30;;;;;;5068858;28;20050;-75
2022/10/02 06:28:15;;;;;;;1.33;0.20;;;18.90;94.60;;;;;;5056515;28;20041;-76
2022/10/02 06:30:54;;;;;;;1.67;0.20;;;19.00;94.20;;;;;;5065156;28;20075;-77
2022/10/02 06:33:28;;;;;;;0.55;0.10;;;19.20;93.70;;;;;;4959042;28;2894902;-74
2022/10/02 06:36:17;;;;;;;0.65;0.20;;;19.40;93.70;;;;;;5048662;28;20048;-74
2022/10/02 06:39:09;;;;;;;2.63;0.20;;;19.50;93.50;;;;;;5057120;28;20021;-78
2022/10/02 06:42:00;;;;;;;1.25;0.32;;;19.60;93.50;;;;;;5067009;28;20047;-74
2022/10/02 06:44:46;;;;;;;1.67;0.43;;;19.60;93.50;;;;;;5066131;28;20133;-74
2022/10/02 06:47:39;;;;;;;1.23;0.38;;;19.50;93.60;;;;;;5049104;28;20029;-75
2022/10/02 06:50:27;;;;;;;2.28;0.22;;;19.30;93.80;;;;;;5050279;28;20067;-74
2022/10/02 06:53:19;;;;;;;1.52;0.85;;;19.20;94.10;;;;;;5050404;28;20056;-77
2022/10/02 06:56:04;;;;;;;3.80;0.43;;;19.00;94.00;;;;;;5051381;28;20033;-76
2022/10/02 06:59:05;;;;;;;0.22;0.20;;;19.00;94.00;;;;;;5050784;28;20360;-76
2022/10/02 07:01:41;;;;;;;0.88;0.30;;;18.80;94.10;;;;;;5048528;28;20037;-76
2022/10/02 07:04:40;;;;;;;0.60;0.35;;;18.60;94.60;;;;;;5046200;28;20640;-74
2022/10/02 07:07:20;;;;;;;0.75;0.30;;;18.70;94.70;;;;;;5049598;28;20120;-77
2022/10/02 07:10:02;;;;;;;0.88;0.50;;;18.60;95.00;;;;;;5049306;28;20029;-78
2022/10/02 07:12:50;;;;;;;0.85;0.25;;;18.50;94.70;;;;;;5057123;28;20123;-77
2022/10/02 07:15:43;;;;;;;0.40;0.20;;;18.30;95.20;;;;;;5063498;28;20107;-77
2022/10/02 07:18:31;;;;;;;1.00;0.50;;;18.20;95.10;;;;;;5067450;28;20513;-80
2022/10/02 07:21:09;;;;;;;2.30;0.40;;;18.00;95.30;;;;;;5056925;28;20029;-78
2022/10/02 07:23:36;;;;;;;0.55;0.32;;;17.90;95.50;;;;;;5066983;28;20051;-76
2022/10/02 07:26:43;;;;;;;0.38;0.13;;;17.80;95.70;;;;;;5073582;28;20096;-78
2022/10/02 07:29:28;;;;;;;2.28;0.20;;;17.70;95.90;;;;;;5017891;28;20037;-76
2022/10/02 07:32:01;;;;;;;0.45;0.43;;;17.60;95.80;;;;;;5056764;28;20044;-78
2022/10/02 07:34:31;;;;;;;0.68;0.25;;;17.40;96.10;;;;;;5065947;28;20433;-78
2022/10/02 07:37:23;;;;;;;2.20;0.35;;;17.30;96.10;;;;;;5066259;28;20570;-79
2022/10/02 07:40:19;;;;;;;2.33;0.47;;;17.20;96.50;;;;;;5069002;28;20461;-79
2022/10/02 07:42:49;;;;;;;2.15;0.77;;;17.00;96.70;;;;;;5062822;28;20090;-78
2022/10/02 07:45:47;;;;;;;0.40;0.30;;;17.00;97.00;;;;;;5068814;28;20384;-79
2022/10/02 07:48:33;;;;;;;0.70;0.30;;;16.90;97.30;;;;;;5070629;28;20032;-80
2022/10/02 07:51:01;;;;;;;4.88;0.60;;;16.80;97.60;;;;;;5058107;28;20032;-76
2022/10/02 07:53:38;;;;;;;0.90;0.40;;;16.70;97.80;;;;;;5062246;28;20048;-76
2022/10/02 07:56:18;;;;;;;0.38;0.30;;;16.70;97.70;;;;;;5058981;28;20029;-76
2022/10/02 07:58:56;;;;;;;1.13;0.57;;;16.60;97.80;;;;;;5056815;28;20494;-80
2022/10/02 08:01:30;;;;;;;3.25;0.73;;;16.50;97.90;;;;;;5058433;28;20045;-77
2022/10/02 08:04:09;;;;;;;1.42;0.63;;;16.50;98.00;;;;;;5060473;28;20798;-75
2022/10/02 08:06:37;;;;;;;1.77;0.60;;;16.30;98.00;;;;;;5080773;28;20040;-75
2022/10/02 08:09:21;;;;;;;2.20;0.85;;;16.30;98.50;;;;;;5074664;28;20034;-79
2022/10/02 08:12:03;;;;;;;0.68;0.40;;;16.20;98.60;;;;;;5063302;28;20516;-76
2022/10/02 08:14:42;;;;;;;0.85;0.30;;;16.10;98.70;;;;;;5066274;28;20170;-75
2022/10/02 08:17:30;;;;;;;3.55;0.80;;;16.00;99.00;;;;;;5055491;28;20035;-76
2022/10/02 08:20:15;;;;;;;1.75;0.50;;;16.00;99.30;;;;;;5067898;28;20033;-78
2022/10/02 08:23:03;;;;;;;2.05;0.52;;;15.90;99.70;;;;;;5057586;28;20033;-75
2022/10/02 08:25:44;;;;;;;3.65;0.88;;;15.80;99.90;;;;;;5060958;28;20025;-74
2022/10/02 08:28:21;;;;;;;1.00;0.50;;;15.80;99.90;;;;;;5062768;28;20613;-77
2022/10/02 08:30:49;;;;;;;2.38;0.50;;;15.70;99.90;;;;;;5069605;28;20028;-76
2022/10/02 08:33:21;;;;;;;3.13;1.17;;;15.70;99.90;;;;;;5060167;28;20052;-76
2022/10/02 08:36:10;;;;;;;3.50;0.77;;;15.60;99.90;;;;;;5065578;28;20028;-75
2022/10/02 08:39:02;;;;;;;2.33;0.70;;;15.50;99.90;;;;;;5049187;28;20051;-75
2022/10/02 08:41:49;;;;;;;0.88;0.65;;;15.50;99.90;;;;;;5054082;28;20731;-78
2022/10/02 08:44:49;;;;;;;1.38;0.75;;;15.40;99.90;;;;;;5054273;28;20111;-77
2022/10/02 08:47:22;;;;;;;3.45;1.13;;;15.40;99.90;;;;;;5052405;28;20060;-72
2022/10/02 08:50:25;;;;;;;2.33;0.57;;;15.30;99.90;;;;;;5050006;28;20278;-77
2022/10/02 08:53:40;;;;;;;2.63;0.70;;;15.20;99.90;;;;;;5051757;28;20024;-77
2022/10/02 08:56:16;;;;;;;1.52;1.10;;;15.10;99.90;;;;;;5050975;28;20114;-78
2022/10/02 08:59:07;;;;;;;2.22;0.93;;;15.00;99.90;;;;;;5055992;28;20028;-77
2022/10/02 09:01:55;;;;;;;1.85;0.80;;;14.90;99.90;;;;;;5051317;28;20487;-74
2022/10/02 09:04:49;;;;;;;2.72;1.00;;;14.80;99.90;;;;;;5053353;28;20118;-77
2022/10/02 09:07:53;;;;;;;5.93;0.95;;;14.70;99.90;;;;;;5068515;28;20036;-76
2022/10/02 09:10:32;;;;;;;2.92;1.00;;;14.60;99.90;;;;;;5051893;28;20025;-74
2022/10/02 09:13:02;;;;;;;2.97;1.40;;;14.60;99.90;;;;;;5047307;28;20043;-75
2022/10/02 09:15:45;;;;;;;2.65;1.00;;;14.50;99.90;;;;;;5048751;28;20021;-76
2022/10/02 09:18:37;;;;;;;1.67;0.80;;;14.60;99.90;;;;;;5052050;28;20060;-76
2022/10/02 09:21:38;;;;;;;3.88;1.08;;;14.60;99.90;;;;;;5050496;28;20526;-75
2022/10/02 09:24:24;;;;;;;1.88;1.33;;;14.50;99.90;;;;;;5020117;28;20059;-76
2022/10/02 09:27:00;;;;;;;4.03;2.60;;;14.50;99.90;;;;;;5054001;28;22637;-77
2022/10/02 09:29:37;;;;;;;5.22;2.67;;;14.40;99.90;;;;;;5051024;28;20404;-72
2022/10/02 09:32:27;;;;;;;3.47;1.52;;;14.30;99.90;;;;;;5052156;28;20379;-76
2022/10/02 09:35:17;;;;;;;2.55;1.20;;;14.30;99.90;;;;;;5013114;28;20033;-75
2022/10/02 09:37:48;;;;;;;3.13;0.90;;;14.20;99.90;;;;;;5023892;28;20391;-76
2022/10/02 09:40:52;;;;;;;2.45;1.05;;;14.10;99.90;;;;;;5054170;28;20024;-78
2022/10/02 09:43:26;;;;;;;2.38;1.65;;;14.00;99.90;;;;;;5056097;28;20032;-76
2022/10/02 09:45:53;;;;;;;2.42;1.45;;;13.90;99.90;;;;;;5052106;28;20478;-76
2022/10/02 09:48:45;;;;;;;6.68;1.15;;;13.90;99.90;;;;;;5049303;28;20507;-77
2022/10/02 09:51:48;;;;;;;1.52;0.88;;;13.90;99.90;;;;;;5045850;28;20048;-73
2022/10/02 09:54:52;;;;;;;1.48;0.90;;;13.90;99.90;;;;;;5049280;28;20381;-76
2022/10/02 09:58:13;;;;;;;0.98;0.70;;;13.80;99.90;;;;;;5054369;28;20119;-75
2022/10/02 10:00:59;;;;;;;4.80;1.65;;;13.80;99.90;;;;;;5051936;28;20443;-73
2022/10/02 10:03:50;;;;;;;2.93;1.20;;;13.60;99.90;;;;;;5047022;28;20024;-73
2022/10/02 10:06:34;;;;;;;3.60;1.65;;;13.60;99.90;;;;;;5049209;28;20040;-76
2022/10/02 10:09:14;;;;;;;6.05;2.08;;;13.50;99.90;;;;;;5049346;28;20030;-74
2022/10/02 10:12:25;;;;;;;3.42;1.98;;;13.40;99.90;;;;;;5047403;28;20033;-77
2022/10/02 10:14:58;;;;;;;2.83;0.95;;;13.40;99.90;;;;;;5019198;28;20440;-77
2022/10/02 10:17:55;;;;;;;5.60;1.20;;;13.30;99.90;;;;;;5051403;28;20021;-73
2022/10/02 10:20:49;;;;;;;2.45;1.23;;;13.30;99.90;;;;;;5049305;28;20032;-76
2022/10/02 10:23:37;;;;;;;4.55;1.20;;;13.30;99.90;;;;;;5053661;28;20048;-76
2022/10/02 10:26:50;;;;;;;2.03;1.35;;;13.30;99.90;;;;;;5050489;28;20025;-76
2022/10/02 10:29:38;;;;;;;2.88;0.98;;;13.30;99.90;;;;;;4977812;28;20055;-75
2022/10/02 10:32:27;;;;;;;1.73;0.85;;;13.30;99.90;;;;;;5045337;28;20049;-76
2022/10/02 10:35:08;;;;;;;2.08;1.33;;;13.20;99.90;;;;;;5051750;28;20747;-78
2022/10/02 10:41:25;;;;;;;3.58;2.00;;;13.20;99.90;;;;;;5050176;28;20095;-76
2022/10/02 10:44:27;;;;;;;3.88;2.63;;;13.20;99.90;;;;;;5048806;28;20787;-78
2022/10/02 10:47:17;;;;;;;5.72;1.92;;;13.10;99.90;;;;;;5064889;28;20032;-78
2022/10/02 10:50:23;;;;;;;2.47;1.48;;;13.20;99.90;;;;;;5056574;28;20742;-80
2022/10/02 10:53:28;;;;;;;2.58;1.83;;;13.10;99.90;;;;;;5060119;28;20044;-75
2022/10/02 10:56:20;;;;;;;4.00;2.10;;;13.00;99.90;;;;;;5073684;28;20036;-74
2022/10/02 10:59:04;;;;;;;3.55;2.50;;;13.00;99.90;;;;;;5058643;28;20036;-78
2022/10/02 11:01:36;;;;;;;5.13;2.83;;;13.00;99.90;;;;;;5060547;28;20127;-74
2022/10/02 11:04:36;;;;;;;4.20;2.83;;;13.00;99.90;;;;;;5076022;28;20032;-76
2022/10/02 11:07:33;;;;;;;3.63;2.58;;;13.00;99.90;;;;;;5083402;28;20114;-75
2022/10/02 11:10:04;;;;;;;5.75;2.65;;;12.90;99.90;;;;;;5057669;28;20029;-76
2022/10/02 11:13:04;;;;;;;4.03;2.95;;;13.00;99.90;;;;;;5064352;28;20099;-76
2022/10/02 11:15:41;;;;;;;4.93;2.88;;;13.00;99.90;;;;;;5037653;28;20040;-74
2022/10/02 11:18:30;;;;;;;4.75;2.67;;;13.00;99.90;;;;;;5053041;28;20021;-76
2022/10/02 11:21:19;;;;;;;7.20;3.35;;;13.10;99.90;;;;;;5055710;28;20021;-77
2022/10/02 11:24:12;;;;;;;4.88;3.58;;;13.10;99.90;;;;;;5055737;28;21963;-75
2022/10/02 11:26:46;;;;;;;5.15;3.70;;;13.10;99.90;;;;;;5055006;28;20032;-77
2022/10/02 11:29:23;;;;;;;5.90;3.25;;;13.10;99.90;;;;;;5051324;28;20055;-80
2022/10/02 11:32:03;;;;;;;5.07;3.03;;;13.10;99.90;;;;;;5051707;28;20031;-76
2022/10/02 11:34:57;;;;;;;3.90;2.78;;;13.00;99.90;;;;;;5051416;28;20048;-72
2022/10/02 11:37:47;;;;;;;4.75;3.50;;;13.00;99.90;;;;;;5058454;28;20070;-77
2022/10/02 11:40:36;;;;;;;5.72;3.67;;;13.00;99.90;;;;;;5053530;28;20460;-74
2022/10/02 11:43:21;;;;;;;4.15;2.85;;;13.00;99.90;;;;;;5053868;28;20036;-74
2022/10/02 11:46:20;;;;;;;5.13;2.53;;;13.00;99.90;;;;;;5036257;28;20866;-78
2022/10/02 11:48:58;;;;;;;4.22;2.33;;;13.00;99.90;;;;;;5015785;28;20416;-74
2022/10/02 11:51:37;;;;;;;3.67;2.55;;;13.00;99.90;;;;;;5059741;28;20028;-78
2022/10/02 11:54:16;;;;;;;3.75;2.55;;;12.90;99.90;;;;;;5061610;28;20060;-74
2022/10/02 11:57:08;;;;;;;3.42;2.17;;;12.80;99.90;;;;;;5039385;28;20514;-76
2022/10/02 11:59:59;;;;;;;4.05;2.40;;;12.70;99.90;;;;;;5067106;28;20040;-73
2022/10/02 12:02:40;;;;;;;6.60;2.47;;;12.60;99.90;;;;;;5059917;28;20041;-73
2022/10/02 12:05:10;;;;;;;5.43;1.95;;;12.50;99.90;;;;;;5057810;28;20017;-77
2022/10/02 12:07:57;;;;;;;5.95;2.92;;;12.40;99.90;;;;;;5070286;28;20037;-77
2022/10/02 12:10:48;;;;;;;6.68;3.05;;;12.40;99.90;;;;;;5082335;28;20447;-75
2022/10/02 12:13:39;;;;;;;4.18;2.80;;;12.30;99.90;;;;;;5062245;28;20016;-76
2022/10/02 12:16:16;;;;;;;4.63;2.90;;;12.20;99.90;;;;;;5067233;28;20642;-77
2022/10/02 12:18:57;;;;;;;5.75;2.40;;;12.20;99.90;;;;;;5062080;28;20121;-77
2022/10/02 12:28:14;;;;;;;3.50;1.63;;;11.90;99.90;;;;;;5061712;28;20067;-74
2022/10/02 12:31:10;;;;;;;3.08;1.83;;;11.80;99.90;;;;;;5059847;28;20054;-76
2022/10/02 12:33:58;;;;;;;2.38;2.08;;;11.80;99.90;;;;;;5069349;28;20182;-74
2022/10/02 12:36:45;;;;;;;5.53;2.10;;;11.70;99.90;;;;;;5076854;28;20088;-76
2022/10/02 12:39:37;;;;;;;3.38;2.83;;;11.70;99.90;;;;;;5060586;28;20551;-75
2022/10/02 12:42:31;;;;;;;5.10;2.00;;;11.60;99.90;;;;;;5049615;28;20048;-76
2022/10/02 12:45:30;;;;;;;3.83;1.85;;;11.60;99.90;;;;;;5051758;28;20033;-73
2022/10/02 12:48:00;;;;;;;3.65;2.10;;;11.50;99.90;;;;;;5053695;28;20040;-72
2022/10/02 12:50:53;;;;;;;4.18;2.10;;;11.50;99.90;;;;;;5046739;28;20441;-73
2022/10/02 12:53:35;;;;;;;4.78;2.00;;;11.50;99.90;;;;;;5050626;28;20056;-77
2022/10/02 12:56:13;;;;;;;3.25;2.40;;;11.50;99.90;;;;;;5050990;28;20048;-75
2022/10/02 12:58:48;;;;;;;2.88;2.00;;;11.50;99.90;;;;;;5049336;28;20040;-77
2022/10/02 13:01:51;;;;;;;2.35;1.75;;;11.60;99.90;;;;;;5051271;28;20057;-75
2022/10/02 13:04:36;;;;;;;3.00;1.52;;;11.70;99.90;;;;;;5059500;28;20036;-77
2022/10/02 13:07:31;;;;;;;1.67;1.08;;;11.90;99.90;;;;;;5054447;28;20609;-77
2022/10/02 13:10:01;;;;;;;2.80;1.10;;;12.00;99.90;;;;;;5066252;28;20036;-81
2022/10/02 13:13:00;;;;;;;6.05;1.63;;;12.10;99.90;;;;;;5059639;28;20487;-78
2022/10/02 13:16:04;;;;;;;4.55;1.75;;;12.30;99.90;;;;;;5056947;28;20529;-78
2022/10/02 13:18:56;;;;;;;2.88;1.90;;;12.40;99.90;;;;;;5038601;28;20041;-77
2022/10/02 13:21:36;;;;;;;3.45;2.38;;;12.40;99.90;;;;;;5068880;28;20534;-76
2022/10/02 13:24:19;;;;;;;2.60;2.05;;;12.50;99.90;;;;;;5066435;28;20506;-76
2022/10/02 13:27:26;;;;;;;5.10;2.17;;;12.50;99.90;;;;;;5074102;28;20495;-77
2022/10/02 13:30:04;;;;;;;;;;;12.50;99.90;;;;;;5054313;28;20029;-77
2022/10/02 13:32:45;;;;;;;;;;;12.40;99.90;;;;;;5052400;28;19912;-78
2022/10/02 13:35:31;;;;;;;;;;;12.40;99.90;;;;;;5068681;28;20003;-78
2022/10/02 13:38:06;;;;;;;;;;;12.30;99.90;;;;;;5069337;28;19908;-76
2022/10/02 13:40:33;;;;;;;;;;;12.30;99.90;;;;;;5069968;28;19947;-76
2022/10/02 13:43:12;;;;;;;;;;;12.30;99.90;;;;;;5085251;28;19912;-76
2022/10/02 13:45:56;;;;;;;;;;;12.20;99.90;;;;;;5070938;28;20378;-76
2022/10/02 13:48:26;;;;;;;;;;;12.20;99.90;;;;;;5073644;28;19920;-79
2022/10/02 13:51:01;;;;;;;;;;;12.20;99.90;;;;;;5079796;28;20354;-76
2022/10/02 13:53:37;;;;;;;;;;;12.10;99.90;;;;;;5069088;28;19917;-73
2022/10/02 13:56:10;;;;;;;;;;;12.10;99.90;;;;;;5071739;28;20022;-77
2022/10/02 13:58:42;;;;;;;;;;;12.00;99.90;;;;;;5073555;28;19965;-79
2022/10/02 14:01:09;;;;;;;;;;;12.00;99.90;;;;;;5069345;28;19912;-76
2022/10/02 14:03:53;;;;;;;;;;;11.90;99.90;;;;;;5067063;28;19911;-79
2022/10/02 14:06:29;;;;;;;;;;;11.90;99.90;;;;;;5070196;28;19916;-77
2022/10/02 14:08:56;;;;;;;;;;;11.80;99.90;;;;;;5062043;28;20290;-78
2022/10/02 14:11:35;;;;;;;;;;;11.80;99.90;;;;;;5067641;28;19919;-80
2022/10/02 14:14:17;;;;;;;;;;;11.80;99.90;;;;;;5069102;28;19908;-79
2022/10/02 14:16:52;;;;;;;;;;;11.80;99.90;;;;;;5071134;28;19905;-79
2022/10/02 14:19:22;;;;;;;;;;;11.70;99.90;;;;;;5069489;28;20283;-77
2022/10/02 14:22:06;;;;;;;;;;;11.70;99.90;;;;;;5074542;28;19955;-77
2022/10/02 14:27:23;;;;;;;;;;;11.70;99.90;;;;;;5060124;28;19919;-77
2022/10/02 14:30:28;;;;;;;;;;;11.60;99.90;;;;;;5068205;28;19912;-77
2022/10/02 14:33:18;;;;;;;;;;;11.50;99.90;;;;;;5001763;28;19921;-77